^^
WestSenecaWeather Station Historical Data
 
Daily Summary for February 22, 2019 Units:  English    Metric   Both
Daily Weekly Monthly Yearly Custom
  Current: High: Low: Average:
Temperature: 34.6 °F 35.4 °F 23.8 °F 30 °F
Dew Point: 26.2 °F 27.3 °F 21.8 °F 24.6 °F
Humidity: 71% 93% 67% 81%
Wind Speed: 5.0mph 8.1mph 0.0mph 2.7mph
Wind Gust: 3.3mph 5.3mph - -
WindNorth - - SW
Pressure: 30.47 in 30.47 in 30.26 in -
Precipitation: 0.00 in      
Historical Graphs
 
 
Tabular Data for February 22, 2019
Time Temperature Dew Point Pressure Wind Wind Speed Wind Gust Humidity Rainfall Rate (Hourly) solar
00:04 32.0 °F 25.6 °F 30.26 in ENE 5.8 mph 3.8 mph 77% 0.00 in WeatherDisplay:10.37 W/m2
00:09 32.0 °F 25.6 °F 30.26 in NE 5.8 mph 2.3 mph 77% 0.00 in WeatherDisplay:10.37 W/m2
00:14 31.9 °F 25.5 °F 30.26 in ENE 6.9 mph 4.7 mph 77% 0.00 in WeatherDisplay:10.37 W/m2
00:19 31.9 °F 25.2 °F 30.26 in ENE 3.5 mph 1.7 mph 76% 0.00 in WeatherDisplay:10.37 W/m2
00:24 31.8 °F 25.1 °F 30.26 in ENE 5.8 mph 3.8 mph 76% 0.00 in WeatherDisplay:10.37 W/m2
00:29 31.7 °F 25.0 °F 30.27 in ENE 3.5 mph 2.2 mph 76% 0.00 in WeatherDisplay:10.37 W/m2
00:34 31.5 °F 24.8 °F 30.27 in ENE 3.0 mph 2.0 mph 76% 0.00 in WeatherDisplay:10.37 W/m2
00:39 31.4 °F 24.7 °F 30.27 in East 3.5 mph 2.4 mph 76% 0.00 in WeatherDisplay:10.37 W/m2
00:44 31.2 °F 24.5 °F 30.27 in ENE 3.5 mph 1.2 mph 76% 0.00 in WeatherDisplay:10.37 W/m2
00:49 31.1 °F 24.4 °F 30.27 in East 5.8 mph 2.0 mph 76% 0.00 in WeatherDisplay:10.37 W/m2
00:54 31.0 °F 24.3 °F 30.27 in East 5.8 mph 2.0 mph 76% 0.00 in WeatherDisplay:10.37 W/m2
00:59 30.8 °F 24.1 °F 30.27 in East 2.3 mph 1.9 mph 76% 0.00 in WeatherDisplay:10.37 W/m2
01:04 30.7 °F 24.0 °F 30.27 in East 3.5 mph 2.4 mph 76% 0.00 in WeatherDisplay:10.37 W/m2
01:09 30.6 °F 24.2 °F 30.27 in ENE 3.5 mph 2.1 mph 77% 0.00 in WeatherDisplay:10.37 W/m2
01:14 30.7 °F 24.3 °F 30.27 in ENE 3.5 mph 3.2 mph 77% 0.00 in WeatherDisplay:10.37 W/m2
01:19 30.6 °F 24.2 °F 30.27 in ENE 2.3 mph 1.7 mph 77% 0.00 in WeatherDisplay:10.37 W/m2
01:23 30.6 °F 24.2 °F 30.27 in ENE 3.0 mph 0.6 mph 77% 0.00 in WeatherDisplay:10.37 W/m2
01:29 30.5 °F 24.1 °F 30.28 in ENE 3.5 mph 2.5 mph 77% 0.00 in WeatherDisplay:10.37 W/m2
01:34 30.4 °F 24.1 °F 30.28 in ENE 3.5 mph 1.5 mph 77% 0.00 in WeatherDisplay:10.37 W/m2
01:39 30.3 °F 24.0 °F 30.28 in ENE 1.2 mph 0.8 mph 77% 0.00 in WeatherDisplay:10.37 W/m2
01:44 30.2 °F 24.2 °F 30.28 in ENE 2.3 mph 1.0 mph 78% 0.00 in WeatherDisplay:10.37 W/m2
01:49 30.1 °F 24.1 °F 30.29 in ENE 3.0 mph 1.6 mph 78% 0.00 in WeatherDisplay:10.37 W/m2
01:54 30.1 °F 24.1 °F 30.28 in ENE 3.5 mph 1.5 mph 78% 0.00 in WeatherDisplay:10.37 W/m2
01:59 30.0 °F 24.0 °F 30.28 in ENE 1.2 mph   78% 0.00 in WeatherDisplay:10.37 W/m2
02:04 29.9 °F 23.9 °F 30.28 in Calm     78% 0.00 in WeatherDisplay:10.37 W/m2
02:09 29.7 °F 23.7 °F 30.29 in ENE 3.5 mph 1.3 mph 78% 0.00 in WeatherDisplay:10.37 W/m2
02:14 29.6 °F 23.6 °F 30.29 in ENE 2.3 mph 1.0 mph 78% 0.00 in WeatherDisplay:10.37 W/m2
02:19 29.3 °F 23.6 °F 30.29 in ENE 1.2 mph 0.5 mph 79% 0.00 in WeatherDisplay:10.37 W/m2
02:24 29.0 °F 23.3 °F 30.29 in ENE 1.2 mph 0.5 mph 79% 0.00 in WeatherDisplay:10.37 W/m2
02:29 28.7 °F 23.3 °F 30.29 in ENE 1.2 mph 0.3 mph 80% 0.00 in WeatherDisplay:10.37 W/m2
02:34 28.4 °F 23.0 °F 30.29 in ENE 1.2 mph 0.9 mph 80% 0.00 in WeatherDisplay:10.37 W/m2
02:39 28.1 °F 23.0 °F 30.30 in ENE 2.3 mph 1.0 mph 81% 0.00 in WeatherDisplay:10.37 W/m2
02:44 28.0 °F 23.2 °F 30.30 in Calm     82% 0.00 in WeatherDisplay:10.37 W/m2
02:49 27.8 °F 23.0 °F 30.29 in Calm     82% 0.00 in WeatherDisplay:10.37 W/m2
02:54 27.6 °F 23.1 °F 30.30 in Calm     83% 0.00 in WeatherDisplay:10.37 W/m2
02:59 27.5 °F 23.0 °F 30.30 in Calm     83% 0.00 in WeatherDisplay:10.37 W/m2
03:04 27.3 °F 23.1 °F 30.30 in Calm     84% 0.00 in WeatherDisplay:10.37 W/m2
03:09 27.1 °F 22.9 °F 30.30 in ENE 2.3 mph 1.3 mph 84% 0.00 in WeatherDisplay:10.37 W/m2
03:14 27.1 °F 22.9 °F 30.30 in ENE 2.3 mph 1.3 mph 84% 0.00 in WeatherDisplay:10.37 W/m2
03:19 27.1 °F 23.2 °F 30.31 in ENE 2.3 mph 1.0 mph 85% 0.00 in WeatherDisplay:10.37 W/m2
03:24 27.0 °F 23.1 °F 30.31 in ENE 2.3 mph 1.4 mph 85% 0.00 in WeatherDisplay:10.37 W/m2
03:29 27.0 °F 23.4 °F 30.31 in ENE 3.5 mph 2.7 mph 86% 0.00 in WeatherDisplay:10.37 W/m2
03:34 27.0 °F 23.4 °F 30.32 in ENE 2.3 mph 1.9 mph 86% 0.00 in WeatherDisplay:10.37 W/m2
03:39 27.0 °F 23.6 °F 30.32 in ENE 3.5 mph 1.9 mph 87% 0.00 in WeatherDisplay:10.37 W/m2
03:44 27.1 °F 23.7 °F 30.32 in NNW 2.3 mph 1.1 mph 87% 0.00 in WeatherDisplay:10.37 W/m2
03:49 27.0 °F 23.9 °F 30.32 in NNW 1.2 mph 0.2 mph 88% 0.00 in WeatherDisplay:10.37 W/m2
03:54 26.9 °F 23.8 °F 30.32 in Calm     88% 0.00 in WeatherDisplay:10.37 W/m2
03:59 26.7 °F 23.6 °F 30.32 in NNW 1.2 mph   88% 0.00 in WeatherDisplay:10.37 W/m2
04:04 26.5 °F 23.4 °F 30.32 in NNW 1.2 mph 0.6 mph 88% 0.00 in WeatherDisplay:10.37 W/m2
04:09 26.3 °F 23.2 °F 30.32 in NNW 2.3 mph 0.9 mph 88% 0.00 in WeatherDisplay:10.37 W/m2
04:14 26.0 °F 22.9 °F 30.32 in NNW 1.2 mph   88% 0.00 in WeatherDisplay:10.37 W/m2
04:19 25.8 °F 23.0 °F 30.33 in Calm     89% 0.00 in WeatherDisplay:10.37 W/m2
04:24 25.6 °F 22.8 °F 30.32 in Calm     89% 0.00 in WeatherDisplay:10.37 W/m2
04:27 25.5 °F 22.7 °F 30.32 in Calm     89% 0.00 in WeatherDisplay:10.37 W/m2
04:34 25.5 °F 23.0 °F 30.33 in Calm     90% 0.00 in WeatherDisplay:10.37 W/m2
04:37 25.5 °F 23.0 °F 30.33 in Calm     90% 0.00 in WeatherDisplay:10.37 W/m2
04:44 25.4 °F 22.9 °F 30.33 in Calm     90% 0.00 in WeatherDisplay:10.37 W/m2
04:49 25.4 °F 22.9 °F 30.34 in Calm     90% 0.00 in WeatherDisplay:10.37 W/m2
04:54 25.4 °F 22.9 °F 30.34 in Calm     90% 0.00 in WeatherDisplay:10.37 W/m2
04:58 25.3 °F 22.8 °F 30.34 in Calm     90% 0.00 in WeatherDisplay:10.37 W/m2
05:04 25.2 °F 22.7 °F 30.34 in Calm     90% 0.00 in WeatherDisplay:10.37 W/m2
05:09 25.0 °F 22.5 °F 30.35 in Calm     90% 0.00 in WeatherDisplay:10.37 W/m2
05:14 24.9 °F 22.6 °F 30.35 in Calm     91% 0.00 in WeatherDisplay:10.37 W/m2
05:19 24.8 °F 22.5 °F 30.35 in Calm     91% 0.00 in WeatherDisplay:10.37 W/m2
05:24 24.7 °F 22.4 °F 30.35 in Calm     91% 0.00 in WeatherDisplay:10.37 W/m2
05:29 24.7 °F 22.4 °F 30.35 in Calm     91% 0.00 in WeatherDisplay:10.37 W/m2
05:34 24.7 °F 22.4 °F 30.35 in Calm     91% 0.00 in WeatherDisplay:10.37 W/m2
05:39 24.8 °F 22.8 °F 30.36 in Calm     92% 0.00 in WeatherDisplay:10.37 W/m2
05:44 24.9 °F 22.9 °F 30.36 in NNW 1.2 mph   92% 0.00 in WeatherDisplay:10.37 W/m2
05:49 25.0 °F 23.0 °F 30.37 in Calm     92% 0.00 in WeatherDisplay:10.37 W/m2
05:54 25.0 °F 23.0 °F 30.37 in Calm     92% 0.00 in WeatherDisplay:10.37 W/m2
05:59 25.0 °F 23.0 °F 30.37 in Calm     92% 0.00 in WeatherDisplay:10.37 W/m2
06:04 24.9 °F 22.9 °F 30.38 in Calm     92% 0.00 in WeatherDisplay:10.37 W/m2
06:09 24.9 °F 22.9 °F 30.38 in Calm     92% 0.00 in WeatherDisplay:10.37 W/m2
06:14 24.9 °F 22.9 °F 30.38 in Calm     92% 0.00 in WeatherDisplay:10.37 W/m2
06:19 24.9 °F 22.9 °F 30.38 in Calm     92% 0.00 in WeatherDisplay:10.37 W/m2
06:24 25.0 °F 23.0 °F 30.38 in Calm     92% 0.00 in WeatherDisplay:10.37 W/m2
06:29 25.1 °F 23.1 °F 30.38 in Calm     92% 0.00 in WeatherDisplay:10.37 W/m2
06:34 25.1 °F 23.1 °F 30.39 in Calm     92% 0.00 in WeatherDisplay:10.37 W/m2
06:39 25.1 °F 23.1 °F 30.39 in Calm     92% 0.00 in WeatherDisplay:10.37 W/m2
06:44 25.0 °F 23.0 °F 30.39 in Calm     92% 0.00 in WeatherDisplay:10.37 W/m2
06:49 24.9 °F 22.9 °F 30.39 in Calm     92% 0.00 in WeatherDisplay:10.37 W/m2
06:54 24.7 °F 22.7 °F 30.39 in Calm     92% 0.00 in WeatherDisplay:10.37 W/m2
06:59 24.4 °F 22.2 °F 30.39 in Calm     91% 0.00 in WeatherDisplay:10.37 W/m2
07:04 24.3 °F 22.3 °F 30.39 in Calm     92% 0.00 in WeatherDisplay:10.37 W/m2
07:09 24.0 °F 22.0 °F 30.40 in Calm     92% 0.00 in WeatherDisplay:10.37 W/m2
07:14 23.9 °F 21.9 °F 30.40 in Calm     92% 0.00 in WeatherDisplay:10.37 W/m2
07:19 23.8 °F 21.8 °F 30.40 in Calm     92% 0.00 in WeatherDisplay:10.37 W/m2
07:24 23.9 °F 21.9 °F 30.41 in Calm     92% 0.00 in WeatherDisplay:10.37 W/m2
07:29 23.8 °F 21.8 °F 30.41 in Calm     92% 0.00 in WeatherDisplay:10.37 W/m2
07:34 23.8 °F 21.8 °F 30.41 in Calm     92% 0.00 in WeatherDisplay:10.37 W/m2
07:39 24.0 °F 22.0 °F 30.41 in Calm     92% 0.00 in WeatherDisplay:10.37 W/m2
07:44 24.2 °F 22.5 °F 30.41 in Calm     93% 0.00 in WeatherDisplay:10.37 W/m2
07:49 24.5 °F 22.8 °F 30.42 in Calm     93% 0.00 in WeatherDisplay:10.37 W/m2
07:54 24.9 °F 23.2 °F 30.42 in Calm     93% 0.00 in WeatherDisplay:10.37 W/m2
07:59 25.3 °F 23.6 °F 30.42 in Calm     93% 0.00 in WeatherDisplay:10.37 W/m2
08:04 25.5 °F 23.8 °F 30.42 in Calm     93% 0.00 in WeatherDisplay:10.37 W/m2
08:09 25.7 °F 24.0 °F 30.42 in Calm     93% 0.00 in WeatherDisplay:10.37 W/m2
08:14 26.0 °F 24.3 °F 30.42 in Calm     93% 0.00 in WeatherDisplay:10.37 W/m2
08:19 26.4 °F 24.7 °F 30.43 in Calm     93% 0.00 in WeatherDisplay:10.37 W/m2
08:24 26.7 °F 24.9 °F 30.43 in Calm     93% 0.00 in WeatherDisplay:10.37 W/m2
08:29 26.9 °F 24.9 °F 30.43 in NNW 2.3 mph 0.5 mph 92% 0.00 in WeatherDisplay:10.37 W/m2
08:34 27.2 °F 25.2 °F 30.43 in NNW 3.5 mph 2.5 mph 92% 0.00 in WeatherDisplay:10.37 W/m2
08:39 27.6 °F 25.3 °F 30.44 in NNW 3.5 mph 2.2 mph 91% 0.00 in WeatherDisplay:10.37 W/m2
08:44 28.0 °F 25.7 °F 30.44 in NNW 3.5 mph 2.1 mph 91% 0.00 in WeatherDisplay:10.37 W/m2
08:49 28.4 °F 26.1 °F 30.44 in NNW 2.3 mph 1.2 mph 91% 0.00 in WeatherDisplay:10.37 W/m2
08:54 28.8 °F 26.2 °F 30.44 in NNW 2.3 mph 1.1 mph 90% 0.00 in WeatherDisplay:10.37 W/m2
08:59 29.1 °F 26.5 °F 30.44 in NNW 3.0 mph 1.5 mph 90% 0.00 in WeatherDisplay:10.37 W/m2
09:04 29.6 °F 26.8 °F 30.45 in NE 4.0 mph 2.7 mph 89% 0.00 in WeatherDisplay:10.37 W/m2
09:09 29.8 °F 26.7 °F 30.44 in ENE 3.5 mph 2.2 mph 88% 0.00 in WeatherDisplay:10.37 W/m2
09:14 30.2 °F 26.8 °F 30.45 in ENE 3.5 mph 2.5 mph 87% 0.00 in WeatherDisplay:10.37 W/m2
09:19 30.6 °F 26.6 °F 30.45 in ENE 3.5 mph 1.8 mph 85% 0.00 in WeatherDisplay:10.37 W/m2
09:24 31.1 °F 27.1 °F 30.45 in ENE 3.5 mph 1.7 mph 85% 0.00 in WeatherDisplay:10.37 W/m2
09:29 31.6 °F 27.3 °F 30.44 in East 5.8 mph 2.6 mph 84% 0.00 in WeatherDisplay:10.37 W/m2
09:34 31.8 °F 26.3 °F 30.44 in East 5.8 mph 2.6 mph 80% 0.00 in WeatherDisplay:10.37 W/m2
09:39 32.2 °F 26.4 °F 30.44 in SE 4.6 mph 2.3 mph 79% 0.00 in WeatherDisplay:10.37 W/m2
09:44 32.6 °F 26.5 °F 30.44 in SE 3.5 mph 1.4 mph 78% 0.00 in WeatherDisplay:10.37 W/m2
09:49 32.9 °F 26.5 °F 30.44 in East 6.0 mph 3.7 mph 77% 0.00 in WeatherDisplay:10.37 W/m2
09:54 33.0 °F 26.3 °F 30.44 in SE 3.5 mph 1.9 mph 76% 0.00 in WeatherDisplay:10.37 W/m2
09:59 33.3 °F 26.2 °F 30.44 in East 5.0 mph 2.7 mph 75% 0.00 in WeatherDisplay:10.37 W/m2
10:04 33.5 °F 26.1 °F 30.44 in East 5.0 mph 2.6 mph 74% 0.00 in WeatherDisplay:10.37 W/m2
10:09 33.9 °F 26.2 °F 30.43 in ESE 5.8 mph 3.4 mph 73% 0.00 in WeatherDisplay:10.37 W/m2
10:14 33.9 °F 25.8 °F 30.44 in ESE 3.5 mph 2.0 mph 72% 0.00 in WeatherDisplay:10.37 W/m2
10:19 34.1 °F 26.0 °F 30.44 in ENE 2.3 mph 1.0 mph 72% 0.00 in WeatherDisplay:10.37 W/m2
10:24 33.9 °F 25.5 °F 30.44 in East 5.8 mph 4.1 mph 71% 0.00 in WeatherDisplay:10.37 W/m2
10:29 33.7 °F 25.6 °F 30.44 in SE 2.3 mph 1.9 mph 72% 0.00 in WeatherDisplay:10.37 W/m2
10:34 33.6 °F 25.5 °F 30.44 in North 4.6 mph 2.3 mph 72% 0.00 in WeatherDisplay:10.37 W/m2
10:39 34.2 °F 26.1 °F 30.44 in SE 3.5 mph 0.2 mph 72% 0.00 in WeatherDisplay:10.37 W/m2
10:44 34.8 °F 26.4 °F 30.45 in SE 4.6 mph 2.6 mph 71% 0.00 in WeatherDisplay:10.37 W/m2
10:49 35.1 °F 26.3 °F 30.45 in ESE 6.9 mph 2.6 mph 70% 0.00 in WeatherDisplay:10.37 W/m2
10:54 35.3 °F 25.8 °F 30.46 in NE 4.6 mph 3.9 mph 68% 0.00 in WeatherDisplay:10.37 W/m2
10:59 35.4 °F 25.9 °F 30.45 in SSE 4.6 mph 4.0 mph 68% 0.00 in WeatherDisplay:10.37 W/m2
11:04 35.3 °F 25.8 °F 30.46 in SE 4.0 mph 3.1 mph 68% 0.00 in WeatherDisplay:10.37 W/m2
11:09 35.1 °F 25.2 °F 30.45 in North 3.5 mph 2.1 mph 67% 0.00 in WeatherDisplay:10.37 W/m2
11:14 34.9 °F 25.4 °F 30.45 in North 4.0 mph 3.7 mph 68% 0.00 in WeatherDisplay:10.37 W/m2
11:19 34.8 °F 25.3 °F 30.45 in North 4.0 mph 2.3 mph 68% 0.00 in WeatherDisplay:10.37 W/m2
11:24 34.6 °F 24.8 °F 30.45 in North 8.1 mph 3.7 mph 67% 0.00 in WeatherDisplay:10.37 W/m2
11:29 34.6 °F 24.8 °F 30.45 in North 4.6 mph 3.9 mph 67% 0.00 in WeatherDisplay:10.37 W/m2
11:34 34.5 °F 25.0 °F 30.45 in North 2.3 mph 1.8 mph 68% 0.00 in WeatherDisplay:10.37 W/m2
11:39 34.6 °F 25.1 °F 30.46 in North 3.5 mph 1.1 mph 68% 0.00 in WeatherDisplay:10.37 W/m2
11:44 34.7 °F 25.2 °F 30.46 in North 3.5 mph 1.7 mph 68% 0.00 in WeatherDisplay:10.37 W/m2
11:49 34.8 °F 25.3 °F 30.46 in North 5.0 mph 4.0 mph 68% 0.00 in WeatherDisplay:10.37 W/m2
11:54 34.8 °F 25.7 °F 30.46 in North 3.5 mph 2.5 mph 69% 0.00 in WeatherDisplay:10.37 W/m2
11:59 34.8 °F 26.4 °F 30.46 in North 3.5 mph 1.9 mph 71% 0.00 in WeatherDisplay:10.37 W/m2
12:04 34.8 °F 26.4 °F 30.46 in North 4.0 mph 3.3 mph 71% 0.00 in WeatherDisplay:10.37 W/m2
12:09 34.8 °F 25.7 °F 30.46 in North 3.5 mph 2.0 mph 69% 0.00 in WeatherDisplay:10.37 W/m2
12:14 34.7 °F 25.6 °F 30.45 in North 3.5 mph 2.8 mph 69% 0.00 in WeatherDisplay:10.37 W/m2
12:19 34.6 °F 25.8 °F 30.45 in North 5.8 mph 2.2 mph 70% 0.00 in WeatherDisplay:10.37 W/m2
12:24 34.3 °F 25.9 °F 30.45 in North 4.6 mph 4.2 mph 71% 0.00 in WeatherDisplay:10.37 W/m2
12:29 34.1 °F 26.0 °F 30.45 in North 5.8 mph 3.8 mph 72% 0.00 in WeatherDisplay:10.37 W/m2
12:34 34.1 °F 26.3 °F 30.45 in North 5.0 mph 2.4 mph 73% 0.00 in WeatherDisplay:10.37 W/m2
12:39 34.1 °F 26.0 °F 30.45 in North 5.8 mph 4.0 mph 72% 0.00 in WeatherDisplay:10.37 W/m2
12:44 34.4 °F 26.6 °F 30.46 in North 2.3 mph 0.6 mph 73% 0.00 in WeatherDisplay:10.37 W/m2
12:49 34.8 °F 26.7 °F 30.46 in North 5.0 mph 3.1 mph 72% 0.00 in WeatherDisplay:10.37 W/m2
12:54 34.7 °F 26.3 °F 30.45 in North 3.5 mph 3.2 mph 71% 0.00 in WeatherDisplay:10.37 W/m2
12:59 34.7 °F 26.6 °F 30.45 in North 3.5 mph 2.7 mph 72% 0.00 in WeatherDisplay:10.37 W/m2
13:04 34.7 °F 26.6 °F 30.44 in North 3.5 mph 2.2 mph 72% 0.00 in WeatherDisplay:10.37 W/m2
13:09 34.5 °F 26.4 °F 30.45 in North 6.9 mph 3.5 mph 72% 0.00 in WeatherDisplay:10.37 W/m2
13:14 34.4 °F 26.6 °F 30.45 in North 5.0 mph 3.4 mph 73% 0.00 in WeatherDisplay:10.37 W/m2
13:19 34.3 °F 26.2 °F 30.45 in North 4.6 mph 3.0 mph 72% 0.00 in WeatherDisplay:10.37 W/m2
13:24 34.4 °F 26.6 °F 30.45 in North 4.6 mph 1.7 mph 73% 0.00 in WeatherDisplay:10.37 W/m2
13:29 34.6 °F 26.8 °F 30.45 in North 4.6 mph 2.6 mph 73% 0.00 in WeatherDisplay:10.37 W/m2
13:34 34.6 °F 26.8 °F 30.45 in North 3.5 mph 1.7 mph 73% 0.00 in WeatherDisplay:10.37 W/m2
13:39 34.5 °F 26.1 °F 30.45 in North 3.5 mph 1.9 mph 71% 0.00 in WeatherDisplay:10.37 W/m2
13:44 34.5 °F 26.4 °F 30.45 in North 3.5 mph 2.6 mph 72% 0.00 in WeatherDisplay:10.37 W/m2
13:49 34.4 °F 26.3 °F 30.45 in North 5.8 mph 3.9 mph 72% 0.00 in WeatherDisplay:10.37 W/m2
13:54 34.2 °F 26.1 °F 30.45 in North 5.8 mph 3.6 mph 72% 0.00 in WeatherDisplay:10.37 W/m2
13:59 34.3 °F 26.2 °F 30.45 in North 3.5 mph 2.7 mph 72% 0.00 in WeatherDisplay:10.37 W/m2
14:04 34.4 °F 26.3 °F 30.45 in North 4.6 mph 2.4 mph 72% 0.00 in WeatherDisplay:10.37 W/m2
14:09 34.4 °F 26.3 °F 30.45 in North 8.1 mph 5.3 mph 72% 0.00 in WeatherDisplay:10.37 W/m2
14:14 34.3 °F 26.2 °F 30.45 in North 4.6 mph 3.6 mph 72% 0.00 in WeatherDisplay:10.37 W/m2
14:19 34.4 °F 26.3 °F 30.46 in North 4.6 mph 3.7 mph 72% 0.00 in WeatherDisplay:10.37 W/m2
14:24 34.4 °F 26.0 °F 30.46 in North 5.8 mph 3.7 mph 71% 0.00 in WeatherDisplay:10.37 W/m2
14:29 34.4 °F 26.0 °F 30.46 in North 5.8 mph 3.7 mph 71% 0.00 in WeatherDisplay:10.37 W/m2
14:34 34.4 °F 26.0 °F 30.46 in North 6.9 mph 4.0 mph 71% 0.00 in WeatherDisplay:10.37 W/m2
14:39 34.4 °F 26.0 °F 30.46 in North 4.6 mph 3.1 mph 71% 0.00 in WeatherDisplay:10.37 W/m2
14:44 34.5 °F 25.7 °F 30.45 in North 3.5 mph 2.0 mph 70% 0.00 in WeatherDisplay:10.37 W/m2
14:49 34.6 °F 25.8 °F 30.46 in North 5.8 mph 4.1 mph 70% 0.00 in WeatherDisplay:10.37 W/m2
14:54 34.5 °F 26.1 °F 30.46 in North 4.0 mph 3.3 mph 71% 0.00 in WeatherDisplay:10.37 W/m2
14:59 34.5 °F 25.7 °F 30.46 in North 5.8 mph 4.2 mph 70% 0.00 in WeatherDisplay:10.37 W/m2
15:04 34.4 °F 25.6 °F 30.47 in North 3.5 mph 3.0 mph 70% 0.00 in WeatherDisplay:10.37 W/m2
15:09 34.4 °F 25.6 °F 30.47 in North 3.5 mph 1.8 mph 70% 0.00 in WeatherDisplay:10.37 W/m2
15:14 34.5 °F 25.7 °F 30.47 in North 3.5 mph 2.6 mph 70% 0.00 in WeatherDisplay:10.37 W/m2
15:19 34.6 °F 26.2 °F 30.47 in North 3.5 mph 2.5 mph 71% 0.00 in WeatherDisplay:10.37 W/m2
15:24 34.6 °F 25.8 °F 30.47 in North 5.0 mph 4.4 mph 70% 0.00 in WeatherDisplay:10.37 W/m2
15:29 34.6 °F 26.2 °F 30.47 in North 5.0 mph 3.3 mph 71% 0.00 in WeatherDisplay:10.37 W/m2
west seneca weather
Compliments of Weather Underground - 2 mb